Skip Navigation Links Skip Navigation Links

Current Weather

Boryspil, Kiev, Ukraine

For information only: do not use for flight planning or navigation.
Latest weather
Observation time Saturday, October 21, 2017 10:00 PM EEST
Local time Saturday, October 21, 2017 10:37 PM EEST
Flight conditions Marginal Visual Meteorological Conditions
Winds
Wind direction East (100°)
Wind speed 7 mph
Visibility 5.6 mi.
Sky condition
Ceiling 2,500 ft. overcast
Cloud layer scattered clouds 800 ft.
Cloud layer overcast 2,500 ft.
Temperature 48°F
Dewpoint 46°F
Altimeter 29.88 in.Hg
Derived measurements
Relative humidity 93%
Wind chill 45°F
Density altitude 25 ft.
Remarks
No significant changes expected in the next two hours.
METAR UKKK 211900Z 10003MPS 9000 SCT008 OVC025 09/08 Q1012 R08/190060 NOSIG

Settings

Location code

InnerDrive.Weather 4.0.6144.1 Release CLR 4.0.30319.36366
Copyright ©2015 Inner Drive Technology. All rights reserved. Portions Copyright ©1986-2015 David Braverman.

Find weather

Site navigation


Skip Navigation Links

Place info

Page info

PayPal - The safer, easier way to pay online!

Return home.

Copyright ©2017 Inner Drive Technology. Purveyors of fine, hand-crafted computer software. Page printed 2017-10-21T19:37:11 UTC.